Terminal Aerodrome Forecast
Issued by NWS Austin/San Antonio, TX

Home | Current Version | Previous Version | Text Only | Print | Product List | Glossary On
Versions: 1 2 3 4 5 6 7 8 9 10 11 12 13 14 15 16 17 18 19 20
000
FTUS44 KEWX 182001 AAB
TAFSAT
TAF AMD
KSAT 182001Z 1820/1924 18010KT P6SM FEW050 FEW250
     FM190000 15012KT P6SM FEW250
     FM190700 17007KT P6SM SCT025
     FM191500 18008KT P6SM FEW040 FEW250=

USA.gov is the U.S. government's official web portal to all federal, state and local government web resources and services.